sensor_id;sensor_type;location;lat;lon;timestamp;P1;durP1;ratioP1;P2;durP2;ratioP2
75169;SDS011;63749;49.186;9.222;2023-12-14T00:01:40;12.63;;;6.40;;
75169;SDS011;63749;49.186;9.222;2023-12-14T00:04:06;11.40;;;6.72;;
75169;SDS011;63749;49.186;9.222;2023-12-14T00:06:33;13.55;;;6.60;;
75169;SDS011;63749;49.186;9.222;2023-12-14T00:08:59;13.63;;;6.40;;
75169;SDS011;63749;49.186;9.222;2023-12-14T00:11:25;12.00;;;6.47;;
75169;SDS011;63749;49.186;9.222;2023-12-14T00:13:52;10.98;;;6.80;;
75169;SDS011;63749;49.186;9.222;2023-12-14T00:16:17;10.67;;;6.67;;
75169;SDS011;63749;49.186;9.222;2023-12-14T00:18:43;12.27;;;7.07;;
75169;SDS011;63749;49.186;9.222;2023-12-14T00:21:08;11.83;;;6.43;;
75169;SDS011;63749;49.186;9.222;2023-12-14T00:23:34;11.73;;;6.80;;
75169;SDS011;63749;49.186;9.222;2023-12-14T00:25:59;12.87;;;6.70;;
75169;SDS011;63749;49.186;9.222;2023-12-14T00:28:24;13.00;;;6.73;;
75169;SDS011;63749;49.186;9.222;2023-12-14T00:30:50;11.73;;;6.57;;
75169;SDS011;63749;49.186;9.222;2023-12-14T00:33:16;12.37;;;6.93;;
75169;SDS011;63749;49.186;9.222;2023-12-14T00:35:42;12.47;;;6.63;;
75169;SDS011;63749;49.186;9.222;2023-12-14T00:38:07;12.50;;;7.00;;
75169;SDS011;63749;49.186;9.222;2023-12-14T00:40:33;12.60;;;6.77;;
75169;SDS011;63749;49.186;9.222;2023-12-14T00:42:58;11.30;;;6.23;;
75169;SDS011;63749;49.186;9.222;2023-12-14T00:45:23;12.20;;;6.73;;
75169;SDS011;63749;49.186;9.222;2023-12-14T00:47:49;12.07;;;6.83;;
75169;SDS011;63749;49.186;9.222;2023-12-14T00:50:17;11.68;;;6.43;;
75169;SDS011;63749;49.186;9.222;2023-12-14T00:52:43;11.83;;;6.43;;
75169;SDS011;63749;49.186;9.222;2023-12-14T00:55:08;12.07;;;6.73;;
75169;SDS011;63749;49.186;9.222;2023-12-14T00:57:33;13.30;;;7.27;;
75169;SDS011;63749;49.186;9.222;2023-12-14T00:59:59;12.77;;;7.07;;
75169;SDS011;63749;49.186;9.222;2023-12-14T01:02:24;11.98;;;7.10;;
75169;SDS011;63749;49.186;9.222;2023-12-14T01:04:49;12.00;;;6.53;;
75169;SDS011;63749;49.186;9.222;2023-12-14T01:07:15;12.37;;;7.07;;
75169;SDS011;63749;49.186;9.222;2023-12-14T01:09:40;12.80;;;6.83;;
75169;SDS011;63749;49.186;9.222;2023-12-14T01:12:07;13.20;;;7.43;;
75169;SDS011;63749;49.186;9.222;2023-12-14T01:14:32;13.95;;;7.28;;
75169;SDS011;63749;49.186;9.222;2023-12-14T01:16:58;14.95;;;6.93;;
75169;SDS011;63749;49.186;9.222;2023-12-14T01:19:25;11.68;;;6.97;;
75169;SDS011;63749;49.186;9.222;2023-12-14T01:21:51;15.30;;;7.20;;
75169;SDS011;63749;49.186;9.222;2023-12-14T01:24:17;14.35;;;7.20;;
75169;SDS011;63749;49.186;9.222;2023-12-14T01:26:44;16.27;;;7.43;;
75169;SDS011;63749;49.186;9.222;2023-12-14T01:29:09;14.90;;;7.27;;
75169;SDS011;63749;49.186;9.222;2023-12-14T01:31:36;15.45;;;7.75;;
75169;SDS011;63749;49.186;9.222;2023-12-14T01:34:01;13.73;;;7.47;;
75169;SDS011;63749;49.186;9.222;2023-12-14T01:36:27;15.47;;;7.77;;
75169;SDS011;63749;49.186;9.222;2023-12-14T01:38:55;19.42;;;7.70;;
75169;SDS011;63749;49.186;9.222;2023-12-14T01:41:26;13.70;;;7.25;;
75169;SDS011;63749;49.186;9.222;2023-12-14T01:43:55;14.07;;;7.28;;
75169;SDS011;63749;49.186;9.222;2023-12-14T01:46:22;15.03;;;7.33;;
75169;SDS011;63749;49.186;9.222;2023-12-14T01:48:48;14.38;;;7.47;;
75169;SDS011;63749;49.186;9.222;2023-12-14T01:51:16;14.27;;;7.45;;
75169;SDS011;63749;49.186;9.222;2023-12-14T01:53:44;18.67;;;7.82;;
75169;SDS011;63749;49.186;9.222;2023-12-14T01:56:11;14.60;;;7.82;;
75169;SDS011;63749;49.186;9.222;2023-12-14T01:58:39;16.10;;;8.23;;
75169;SDS011;63749;49.186;9.222;2023-12-14T02:01:45;15.40;;;7.57;;
75169;SDS011;63749;49.186;9.222;2023-12-14T02:04:13;15.32;;;7.47;;
75169;SDS011;63749;49.186;9.222;2023-12-14T02:06:47;17.58;;;8.23;;
75169;SDS011;63749;49.186;9.222;2023-12-14T02:09:35;17.73;;;8.98;;
75169;SDS011;63749;49.186;9.222;2023-12-14T02:12:02;18.53;;;7.67;;
75169;SDS011;63749;49.186;9.222;2023-12-14T02:14:27;16.30;;;8.50;;
75169;SDS011;63749;49.186;9.222;2023-12-14T02:16:53;17.97;;;8.47;;
75169;SDS011;63749;49.186;9.222;2023-12-14T02:19:18;19.93;;;9.20;;
75169;SDS011;63749;49.186;9.222;2023-12-14T02:21:43;19.48;;;8.27;;
75169;SDS011;63749;49.186;9.222;2023-12-14T02:24:09;16.83;;;8.30;;
75169;SDS011;63749;49.186;9.222;2023-12-14T02:26:34;19.37;;;9.03;;
75169;SDS011;63749;49.186;9.222;2023-12-14T02:29:01;20.48;;;9.30;;
75169;SDS011;63749;49.186;9.222;2023-12-14T02:31:26;19.57;;;8.60;;
75169;SDS011;63749;49.186;9.222;2023-12-14T02:33:52;18.37;;;8.37;;
75169;SDS011;63749;49.186;9.222;2023-12-14T02:36:17;18.40;;;8.70;;
75169;SDS011;63749;49.186;9.222;2023-12-14T02:38:42;19.67;;;9.10;;
75169;SDS011;63749;49.186;9.222;2023-12-14T02:41:08;20.20;;;8.93;;
75169;SDS011;63749;49.186;9.222;2023-12-14T02:43:35;19.83;;;8.87;;
75169;SDS011;63749;49.186;9.222;2023-12-14T02:46:00;18.55;;;8.98;;
75169;SDS011;63749;49.186;9.222;2023-12-14T02:48:27;19.60;;;9.23;;
75169;SDS011;63749;49.186;9.222;2023-12-14T02:50:57;18.17;;;9.15;;
75169;SDS011;63749;49.186;9.222;2023-12-14T02:53:25;19.55;;;9.45;;
75169;SDS011;63749;49.186;9.222;2023-12-14T02:55:52;22.30;;;9.00;;
75169;SDS011;63749;49.186;9.222;2023-12-14T02:58:18;19.00;;;9.27;;
75169;SDS011;63749;49.186;9.222;2023-12-14T03:00:44;21.48;;;9.20;;
75169;SDS011;63749;49.186;9.222;2023-12-14T03:03:10;19.15;;;9.40;;
75169;SDS011;63749;49.186;9.222;2023-12-14T03:05:36;19.53;;;8.97;;
75169;SDS011;63749;49.186;9.222;2023-12-14T03:08:02;20.00;;;9.60;;
75169;SDS011;63749;49.186;9.222;2023-12-14T03:10:28;19.50;;;9.60;;
75169;SDS011;63749;49.186;9.222;2023-12-14T03:12:54;22.60;;;9.68;;
75169;SDS011;63749;49.186;9.222;2023-12-14T03:15:19;18.63;;;9.67;;
75169;SDS011;63749;49.186;9.222;2023-12-14T03:17:44;21.37;;;9.77;;
75169;SDS011;63749;49.186;9.222;2023-12-14T03:20:10;22.15;;;10.15;;
75169;SDS011;63749;49.186;9.222;2023-12-14T03:22:38;20.30;;;9.57;;
75169;SDS011;63749;49.186;9.222;2023-12-14T03:25:03;20.40;;;9.40;;
75169;SDS011;63749;49.186;9.222;2023-12-14T03:27:29;20.90;;;10.00;;
75169;SDS011;63749;49.186;9.222;2023-12-14T03:29:55;20.23;;;10.03;;
75169;SDS011;63749;49.186;9.222;2023-12-14T03:32:20;19.40;;;9.73;;
75169;SDS011;63749;49.186;9.222;2023-12-14T03:34:46;20.90;;;9.85;;
75169;SDS011;63749;49.186;9.222;2023-12-14T03:37:12;19.57;;;9.77;;
75169;SDS011;63749;49.186;9.222;2023-12-14T03:39:38;19.90;;;10.33;;
75169;SDS011;63749;49.186;9.222;2023-12-14T03:42:04;21.05;;;11.15;;
75169;SDS011;63749;49.186;9.222;2023-12-14T03:44:30;22.67;;;10.80;;
75169;SDS011;63749;49.186;9.222;2023-12-14T03:46:55;24.57;;;12.00;;
75169;SDS011;63749;49.186;9.222;2023-12-14T03:49:22;23.58;;;11.48;;
75169;SDS011;63749;49.186;9.222;2023-12-14T03:51:48;22.77;;;11.87;;
75169;SDS011;63749;49.186;9.222;2023-12-14T03:54:14;25.15;;;11.88;;
75169;SDS011;63749;49.186;9.222;2023-12-14T03:56:39;25.63;;;12.50;;
75169;SDS011;63749;49.186;9.222;2023-12-14T03:59:06;26.17;;;12.23;;
75169;SDS011;63749;49.186;9.222;2023-12-14T04:01:32;29.70;;;12.48;;
75169;SDS011;63749;49.186;9.222;2023-12-14T04:03:58;29.13;;;12.93;;
75169;SDS011;63749;49.186;9.222;2023-12-14T04:06:23;28.53;;;12.60;;
75169;SDS011;63749;49.186;9.222;2023-12-14T04:08:49;26.97;;;12.40;;
75169;SDS011;63749;49.186;9.222;2023-12-14T04:11:14;29.13;;;12.90;;
75169;SDS011;63749;49.186;9.222;2023-12-14T04:13:40;29.63;;;12.70;;
75169;SDS011;63749;49.186;9.222;2023-12-14T04:16:05;32.97;;;13.33;;
75169;SDS011;63749;49.186;9.222;2023-12-14T04:18:32;29.70;;;12.73;;
75169;SDS011;63749;49.186;9.222;2023-12-14T04:20:58;32.17;;;13.77;;
75169;SDS011;63749;49.186;9.222;2023-12-14T04:23:24;28.25;;;12.25;;
75169;SDS011;63749;49.186;9.222;2023-12-14T04:25:49;28.13;;;12.67;;
75169;SDS011;63749;49.186;9.222;2023-12-14T04:28:14;28.60;;;12.80;;
75169;SDS011;63749;49.186;9.222;2023-12-14T04:30:40;30.67;;;13.17;;
75169;SDS011;63749;49.186;9.222;2023-12-14T04:33:05;30.50;;;13.43;;
75169;SDS011;63749;49.186;9.222;2023-12-14T04:35:31;29.07;;;12.97;;
75169;SDS011;63749;49.186;9.222;2023-12-14T04:38:01;27.98;;;12.50;;
75169;SDS011;63749;49.186;9.222;2023-12-14T04:40:26;33.53;;;13.10;;
75169;SDS011;63749;49.186;9.222;2023-12-14T04:42:52;29.83;;;13.70;;
75169;SDS011;63749;49.186;9.222;2023-12-14T04:45:17;31.03;;;13.13;;
75169;SDS011;63749;49.186;9.222;2023-12-14T04:47:44;31.65;;;12.90;;
75169;SDS011;63749;49.186;9.222;2023-12-14T04:50:10;31.57;;;13.20;;
75169;SDS011;63749;49.186;9.222;2023-12-14T04:52:36;33.88;;;14.05;;
75169;SDS011;63749;49.186;9.222;2023-12-14T04:55:03;33.60;;;13.93;;
75169;SDS011;63749;49.186;9.222;2023-12-14T04:57:29;34.15;;;14.07;;
75169;SDS011;63749;49.186;9.222;2023-12-14T04:59:55;30.37;;;13.90;;
75169;SDS011;63749;49.186;9.222;2023-12-14T05:02:21;41.50;;;14.00;;
75169;SDS011;63749;49.186;9.222;2023-12-14T05:04:49;32.93;;;13.97;;
75169;SDS011;63749;49.186;9.222;2023-12-14T05:07:14;34.28;;;14.40;;
75169;SDS011;63749;49.186;9.222;2023-12-14T05:09:40;36.72;;;14.15;;
75169;SDS011;63749;49.186;9.222;2023-12-14T05:12:07;35.17;;;14.47;;
75169;SDS011;63749;49.186;9.222;2023-12-14T05:14:32;35.92;;;14.43;;
75169;SDS011;63749;49.186;9.222;2023-12-14T05:16:57;37.30;;;15.00;;
75169;SDS011;63749;49.186;9.222;2023-12-14T05:19:23;39.33;;;14.57;;
75169;SDS011;63749;49.186;9.222;2023-12-14T05:21:48;39.33;;;14.97;;
75169;SDS011;63749;49.186;9.222;2023-12-14T05:24:15;35.67;;;14.52;;
75169;SDS011;63749;49.186;9.222;2023-12-14T05:26:40;36.67;;;14.57;;
75169;SDS011;63749;49.186;9.222;2023-12-14T05:29:06;36.87;;;14.03;;
75169;SDS011;63749;49.186;9.222;2023-12-14T05:31:31;32.85;;;14.25;;
75169;SDS011;63749;49.186;9.222;2023-12-14T05:33:56;32.07;;;14.27;;
75169;SDS011;63749;49.186;9.222;2023-12-14T05:36:22;35.33;;;14.20;;
75169;SDS011;63749;49.186;9.222;2023-12-14T05:38:47;32.80;;;14.13;;
75169;SDS011;63749;49.186;9.222;2023-12-14T05:41:12;33.63;;;13.73;;
75169;SDS011;63749;49.186;9.222;2023-12-14T05:43:37;31.57;;;13.93;;
75169;SDS011;63749;49.186;9.222;2023-12-14T05:46:03;35.07;;;13.90;;
75169;SDS011;63749;49.186;9.222;2023-12-14T05:48:29;31.23;;;14.13;;
75169;SDS011;63749;49.186;9.222;2023-12-14T05:50:55;36.33;;;14.97;;
75169;SDS011;63749;49.186;9.222;2023-12-14T05:53:21;29.83;;;13.70;;
75169;SDS011;63749;49.186;9.222;2023-12-14T05:55:47;31.45;;;13.50;;
75169;SDS011;63749;49.186;9.222;2023-12-14T05:58:12;33.60;;;14.27;;
75169;SDS011;63749;49.186;9.222;2023-12-14T06:00:38;31.77;;;13.47;;
75169;SDS011;63749;49.186;9.222;2023-12-14T06:03:04;34.20;;;13.77;;
75169;SDS011;63749;49.186;9.222;2023-12-14T06:05:30;33.97;;;13.88;;
75169;SDS011;63749;49.186;9.222;2023-12-14T06:07:56;32.33;;;13.53;;
75169;SDS011;63749;49.186;9.222;2023-12-14T06:10:21;33.00;;;13.87;;
75169;SDS011;63749;49.186;9.222;2023-12-14T06:12:46;32.67;;;14.67;;
75169;SDS011;63749;49.186;9.222;2023-12-14T06:15:12;31.50;;;14.00;;
75169;SDS011;63749;49.186;9.222;2023-12-14T06:17:37;34.83;;;13.77;;
75169;SDS011;63749;49.186;9.222;2023-12-14T06:20:04;36.35;;;14.10;;
75169;SDS011;63749;49.186;9.222;2023-12-14T06:22:31;40.33;;;14.93;;
75169;SDS011;63749;49.186;9.222;2023-12-14T06:24:57;34.57;;;14.70;;
75169;SDS011;63749;49.186;9.222;2023-12-14T06:27:22;37.53;;;14.60;;
75169;SDS011;63749;49.186;9.222;2023-12-14T06:29:51;38.13;;;14.82;;
75169;SDS011;63749;49.186;9.222;2023-12-14T06:32:17;40.22;;;15.25;;
75169;SDS011;63749;49.186;9.222;2023-12-14T06:34:42;41.17;;;14.27;;
75169;SDS011;63749;49.186;9.222;2023-12-14T06:37:07;42.17;;;15.03;;
75169;SDS011;63749;49.186;9.222;2023-12-14T06:39:33;42.97;;;14.57;;
75169;SDS011;63749;49.186;9.222;2023-12-14T06:41:58;38.50;;;14.57;;
75169;SDS011;63749;49.186;9.222;2023-12-14T06:44:23;44.90;;;14.83;;
75169;SDS011;63749;49.186;9.222;2023-12-14T06:46:51;39.95;;;15.13;;
75169;SDS011;63749;49.186;9.222;2023-12-14T06:49:16;34.50;;;14.30;;
75169;SDS011;63749;49.186;9.222;2023-12-14T06:51:42;30.73;;;11.27;;
75169;SDS011;63749;49.186;9.222;2023-12-14T06:54:07;42.57;;;15.27;;
75169;SDS011;63749;49.186;9.222;2023-12-14T06:56:32;41.53;;;16.33;;
75169;SDS011;63749;49.186;9.222;2023-12-14T06:58:58;36.80;;;15.13;;
75169;SDS011;63749;49.186;9.222;2023-12-14T07:01:23;39.00;;;14.93;;
75169;SDS011;63749;49.186;9.222;2023-12-14T07:03:48;32.23;;;14.40;;
75169;SDS011;63749;49.186;9.222;2023-12-14T07:06:14;36.20;;;13.97;;
75169;SDS011;63749;49.186;9.222;2023-12-14T07:08:41;34.50;;;13.90;;
75169;SDS011;63749;49.186;9.222;2023-12-14T07:11:07;36.60;;;14.45;;
75169;SDS011;63749;49.186;9.222;2023-12-14T07:13:33;34.75;;;14.57;;
75169;SDS011;63749;49.186;9.222;2023-12-14T07:16:01;33.38;;;14.05;;
75169;SDS011;63749;49.186;9.222;2023-12-14T07:18:27;34.20;;;14.30;;
75169;SDS011;63749;49.186;9.222;2023-12-14T07:20:52;39.20;;;14.63;;
75169;SDS011;63749;49.186;9.222;2023-12-14T07:23:18;37.30;;;14.20;;
75169;SDS011;63749;49.186;9.222;2023-12-14T07:25:43;36.00;;;13.50;;
75169;SDS011;63749;49.186;9.222;2023-12-14T07:28:08;34.70;;;13.63;;
75169;SDS011;63749;49.186;9.222;2023-12-14T07:30:34;36.50;;;13.30;;
75169;SDS011;63749;49.186;9.222;2023-12-14T07:32:59;35.33;;;13.50;;
75169;SDS011;63749;49.186;9.222;2023-12-14T07:35:25;31.95;;;12.77;;
75169;SDS011;63749;49.186;9.222;2023-12-14T07:37:50;35.10;;;13.00;;
75169;SDS011;63749;49.186;9.222;2023-12-14T07:40:15;36.43;;;13.30;;
75169;SDS011;63749;49.186;9.222;2023-12-14T07:42:41;35.35;;;12.60;;
75169;SDS011;63749;49.186;9.222;2023-12-14T07:45:07;37.30;;;13.40;;
75169;SDS011;63749;49.186;9.222;2023-12-14T07:47:34;33.83;;;12.70;;
75169;SDS011;63749;49.186;9.222;2023-12-14T07:49:59;36.80;;;12.93;;
75169;SDS011;63749;49.186;9.222;2023-12-14T07:52:25;35.20;;;12.33;;
75169;SDS011;63749;49.186;9.222;2023-12-14T07:54:50;32.30;;;12.73;;
75169;SDS011;63749;49.186;9.222;2023-12-14T07:57:15;33.23;;;13.20;;
75169;SDS011;63749;49.186;9.222;2023-12-14T07:59:41;30.80;;;12.17;;
75169;SDS011;63749;49.186;9.222;2023-12-14T08:02:06;32.93;;;12.97;;
75169;SDS011;63749;49.186;9.222;2023-12-14T08:04:31;33.70;;;13.27;;
75169;SDS011;63749;49.186;9.222;2023-12-14T08:06:58;32.40;;;12.57;;
75169;SDS011;63749;49.186;9.222;2023-12-14T08:09:23;32.90;;;13.00;;
75169;SDS011;63749;49.186;9.222;2023-12-14T08:11:49;29.97;;;12.53;;
75169;SDS011;63749;49.186;9.222;2023-12-14T08:14:16;32.53;;;12.55;;
75169;SDS011;63749;49.186;9.222;2023-12-14T08:16:42;35.40;;;13.37;;
75169;SDS011;63749;49.186;9.222;2023-12-14T08:19:07;31.00;;;13.10;;
75169;SDS011;63749;49.186;9.222;2023-12-14T08:21:32;34.78;;;12.65;;
75169;SDS011;63749;49.186;9.222;2023-12-14T08:23:58;32.83;;;13.03;;
75169;SDS011;63749;49.186;9.222;2023-12-14T08:26:23;32.90;;;13.33;;
75169;SDS011;63749;49.186;9.222;2023-12-14T08:28:49;29.90;;;12.90;;
75169;SDS011;63749;49.186;9.222;2023-12-14T08:31:14;31.70;;;12.70;;
75169;SDS011;63749;49.186;9.222;2023-12-14T08:33:43;37.35;;;13.98;;
75169;SDS011;63749;49.186;9.222;2023-12-14T08:36:08;33.90;;;13.77;;
75169;SDS011;63749;49.186;9.222;2023-12-14T08:38:34;33.95;;;13.65;;
75169;SDS011;63749;49.186;9.222;2023-12-14T08:40:59;30.90;;;12.67;;
75169;SDS011;63749;49.186;9.222;2023-12-14T08:43:25;32.17;;;13.07;;
75169;SDS011;63749;49.186;9.222;2023-12-14T08:45:51;31.70;;;11.93;;
75169;SDS011;63749;49.186;9.222;2023-12-14T08:48:16;28.48;;;12.32;;
75169;SDS011;63749;49.186;9.222;2023-12-14T08:50:41;29.53;;;12.40;;
75169;SDS011;63749;49.186;9.222;2023-12-14T08:53:07;29.93;;;12.60;;
75169;SDS011;63749;49.186;9.222;2023-12-14T08:55:33;30.98;;;12.48;;
75169;SDS011;63749;49.186;9.222;2023-12-14T08:57:59;29.13;;;12.80;;
75169;SDS011;63749;49.186;9.222;2023-12-14T09:00:25;33.17;;;13.20;;
75169;SDS011;63749;49.186;9.222;2023-12-14T09:02:51;30.63;;;12.43;;
75169;SDS011;63749;49.186;9.222;2023-12-14T09:05:16;30.73;;;12.83;;
75169;SDS011;63749;49.186;9.222;2023-12-14T09:07:44;31.23;;;12.88;;
75169;SDS011;63749;49.186;9.222;2023-12-14T09:10:09;29.97;;;13.27;;
75169;SDS011;63749;49.186;9.222;2023-12-14T09:12:34;34.70;;;13.70;;
75169;SDS011;63749;49.186;9.222;2023-12-14T09:15:03;29.60;;;13.40;;
75169;SDS011;63749;49.186;9.222;2023-12-14T09:17:29;28.95;;;12.75;;
75169;SDS011;63749;49.186;9.222;2023-12-14T09:19:58;32.20;;;12.68;;
75169;SDS011;63749;49.186;9.222;2023-12-14T09:22:24;27.90;;;12.90;;
75169;SDS011;63749;49.186;9.222;2023-12-14T09:24:50;31.95;;;13.23;;
75169;SDS011;63749;49.186;9.222;2023-12-14T09:27:15;27.97;;;11.87;;
75169;SDS011;63749;49.186;9.222;2023-12-14T09:29:40;24.93;;;11.87;;
75169;SDS011;63749;49.186;9.222;2023-12-14T09:32:07;27.53;;;12.93;;
75169;SDS011;63749;49.186;9.222;2023-12-14T09:34:33;24.77;;;12.00;;
75169;SDS011;63749;49.186;9.222;2023-12-14T09:36:58;24.67;;;11.47;;
75169;SDS011;63749;49.186;9.222;2023-12-14T09:39:25;26.40;;;11.93;;
75169;SDS011;63749;49.186;9.222;2023-12-14T09:41:52;25.85;;;11.55;;
75169;SDS011;63749;49.186;9.222;2023-12-14T09:44:25;24.75;;;11.50;;
75169;SDS011;63749;49.186;9.222;2023-12-14T09:46:50;22.43;;;10.60;;
75169;SDS011;63749;49.186;9.222;2023-12-14T09:49:16;24.50;;;10.40;;
75169;SDS011;63749;49.186;9.222;2023-12-14T09:51:43;25.02;;;10.50;;
75169;SDS011;63749;49.186;9.222;2023-12-14T09:54:08;20.03;;;10.03;;
75169;SDS011;63749;49.186;9.222;2023-12-14T09:56:34;22.67;;;10.73;;
75169;SDS011;63749;49.186;9.222;2023-12-14T09:58:59;19.47;;;9.83;;
75169;SDS011;63749;49.186;9.222;2023-12-14T10:01:27;22.85;;;10.93;;
75169;SDS011;63749;49.186;9.222;2023-12-14T10:04:06;22.20;;;10.70;;
75169;SDS011;63749;49.186;9.222;2023-12-14T10:06:33;22.70;;;11.07;;
75169;SDS011;63749;49.186;9.222;2023-12-14T10:08:58;25.90;;;11.77;;
75169;SDS011;63749;49.186;9.222;2023-12-14T10:11:24;24.43;;;11.63;;
75169;SDS011;63749;49.186;9.222;2023-12-14T10:13:49;22.93;;;11.20;;
75169;SDS011;63749;49.186;9.222;2023-12-14T10:16:30;25.63;;;12.48;;
75169;SDS011;63749;49.186;9.222;2023-12-14T10:18:57;28.53;;;13.30;;
75169;SDS011;63749;49.186;9.222;2023-12-14T10:21:24;26.02;;;13.07;;
75169;SDS011;63749;49.186;9.222;2023-12-14T10:23:51;29.98;;;13.82;;
75169;SDS011;63749;49.186;9.222;2023-12-14T10:26:16;34.97;;;14.63;;
75169;SDS011;63749;49.186;9.222;2023-12-14T10:28:41;29.37;;;14.23;;
75169;SDS011;63749;49.186;9.222;2023-12-14T10:31:07;29.87;;;14.00;;
75169;SDS011;63749;49.186;9.222;2023-12-14T10:33:35;24.60;;;13.50;;
75169;SDS011;63749;49.186;9.222;2023-12-14T10:36:00;25.83;;;13.83;;
75169;SDS011;63749;49.186;9.222;2023-12-14T10:38:27;27.00;;;14.00;;
75169;SDS011;63749;49.186;9.222;2023-12-14T10:40:54;25.95;;;13.55;;
75169;SDS011;63749;49.186;9.222;2023-12-14T10:43:21;27.67;;;13.68;;
75169;SDS011;63749;49.186;9.222;2023-12-14T10:45:47;27.83;;;12.10;;
75169;SDS011;63749;49.186;9.222;2023-12-14T10:48:13;26.03;;;12.20;;
75169;SDS011;63749;49.186;9.222;2023-12-14T10:50:38;26.43;;;13.47;;
75169;SDS011;63749;49.186;9.222;2023-12-14T10:53:07;26.13;;;12.68;;
75169;SDS011;63749;49.186;9.222;2023-12-14T10:55:37;24.83;;;11.47;;
75169;SDS011;63749;49.186;9.222;2023-12-14T10:58:05;25.00;;;12.18;;
75169;SDS011;63749;49.186;9.222;2023-12-14T11:00:30;23.17;;;11.13;;
75169;SDS011;63749;49.186;9.222;2023-12-14T11:02:58;21.30;;;10.90;;
75169;SDS011;63749;49.186;9.222;2023-12-14T11:05:24;22.73;;;11.38;;
75169;SDS011;63749;49.186;9.222;2023-12-14T11:07:55;22.85;;;11.32;;
75169;SDS011;63749;49.186;9.222;2023-12-14T11:10:26;23.17;;;12.30;;
75169;SDS011;63749;49.186;9.222;2023-12-14T11:15:23;22.30;;;11.88;;
75169;SDS011;63749;49.186;9.222;2023-12-14T11:20:46;24.08;;;12.23;;
75169;SDS011;63749;49.186;9.222;2023-12-14T11:23:13;19.35;;;10.82;;
75169;SDS011;63749;49.186;9.222;2023-12-14T11:25:42;24.43;;;11.67;;
75169;SDS011;63749;49.186;9.222;2023-12-14T11:28:07;23.08;;;12.23;;
75169;SDS011;63749;49.186;9.222;2023-12-14T11:30:33;24.67;;;12.43;;
75169;SDS011;63749;49.186;9.222;2023-12-14T11:33:00;23.05;;;11.90;;
75169;SDS011;63749;49.186;9.222;2023-12-14T11:35:25;23.73;;;11.60;;
75169;SDS011;63749;49.186;9.222;2023-12-14T11:37:51;23.47;;;12.13;;
75169;SDS011;63749;49.186;9.222;2023-12-14T11:40:16;21.90;;;11.17;;
75169;SDS011;63749;49.186;9.222;2023-12-14T11:42:57;22.33;;;11.00;;
75169;SDS011;63749;49.186;9.222;2023-12-14T11:45:38;21.98;;;11.65;;
75169;SDS011;63749;49.186;9.222;2023-12-14T11:48:06;21.30;;;11.63;;
75169;SDS011;63749;49.186;9.222;2023-12-14T11:50:32;26.33;;;11.95;;
75169;SDS011;63749;49.186;9.222;2023-12-14T11:52:58;23.70;;;12.47;;
75169;SDS011;63749;49.186;9.222;2023-12-14T11:55:25;24.27;;;11.50;;
75169;SDS011;63749;49.186;9.222;2023-12-14T11:57:51;21.95;;;11.18;;
75169;SDS011;63749;49.186;9.222;2023-12-14T12:00:17;24.02;;;11.55;;
75169;SDS011;63749;49.186;9.222;2023-12-14T12:02:43;23.30;;;11.40;;
75169;SDS011;63749;49.186;9.222;2023-12-14T12:05:09;20.20;;;10.63;;
75169;SDS011;63749;49.186;9.222;2023-12-14T12:07:38;22.60;;;10.43;;
75169;SDS011;63749;49.186;9.222;2023-12-14T12:10:05;19.65;;;10.48;;
75169;SDS011;63749;49.186;9.222;2023-12-14T12:12:32;18.60;;;10.05;;
75169;SDS011;63749;49.186;9.222;2023-12-14T12:14:59;26.17;;;11.47;;
75169;SDS011;63749;49.186;9.222;2023-12-14T12:17:24;20.05;;;10.48;;
75169;SDS011;63749;49.186;9.222;2023-12-14T12:19:49;20.33;;;9.83;;
75169;SDS011;63749;49.186;9.222;2023-12-14T12:22:15;17.57;;;9.03;;
75169;SDS011;63749;49.186;9.222;2023-12-14T12:24:40;16.63;;;8.30;;
75169;SDS011;63749;49.186;9.222;2023-12-14T12:27:05;15.97;;;8.80;;
75169;SDS011;63749;49.186;9.222;2023-12-14T12:29:31;15.05;;;8.20;;
75169;SDS011;63749;49.186;9.222;2023-12-14T12:31:56;14.07;;;7.60;;
75169;SDS011;63749;49.186;9.222;2023-12-14T12:34:22;16.10;;;8.70;;
75169;SDS011;63749;49.186;9.222;2023-12-14T12:36:47;15.30;;;8.10;;
75169;SDS011;63749;49.186;9.222;2023-12-14T12:39:13;16.70;;;8.27;;
75169;SDS011;63749;49.186;9.222;2023-12-14T12:41:38;18.40;;;9.45;;
75169;SDS011;63749;49.186;9.222;2023-12-14T12:44:04;14.93;;;8.20;;
75169;SDS011;63749;49.186;9.222;2023-12-14T12:46:36;15.55;;;8.48;;
75169;SDS011;63749;49.186;9.222;2023-12-14T12:49:03;14.43;;;7.93;;
75169;SDS011;63749;49.186;9.222;2023-12-14T12:51:30;13.50;;;7.82;;
75169;SDS011;63749;49.186;9.222;2023-12-14T12:53:59;14.33;;;8.10;;
75169;SDS011;63749;49.186;9.222;2023-12-14T12:56:27;17.08;;;8.10;;
75169;SDS011;63749;49.186;9.222;2023-12-14T12:58:53;15.30;;;8.20;;
75169;SDS011;63749;49.186;9.222;2023-12-14T13:01:22;16.48;;;7.95;;
75169;SDS011;63749;49.186;9.222;2023-12-14T13:03:54;14.43;;;8.15;;
75169;SDS011;63749;49.186;9.222;2023-12-14T13:06:21;14.10;;;7.23;;
75169;SDS011;63749;49.186;9.222;2023-12-14T13:08:47;14.60;;;8.10;;
75169;SDS011;63749;49.186;9.222;2023-12-14T13:11:12;14.70;;;8.13;;
75169;SDS011;63749;49.186;9.222;2023-12-14T13:13:38;14.80;;;7.70;;
75169;SDS011;63749;49.186;9.222;2023-12-14T13:16:05;15.15;;;7.90;;
75169;SDS011;63749;49.186;9.222;2023-12-14T13:18:30;15.23;;;7.70;;
75169;SDS011;63749;49.186;9.222;2023-12-14T13:20:55;13.97;;;6.90;;
75169;SDS011;63749;49.186;9.222;2023-12-14T13:23:22;14.30;;;7.40;;
75169;SDS011;63749;49.186;9.222;2023-12-14T13:25:47;12.47;;;7.00;;
75169;SDS011;63749;49.186;9.222;2023-12-14T13:28:13;14.67;;;7.17;;
75169;SDS011;63749;49.186;9.222;2023-12-14T13:30:38;11.57;;;6.72;;
75169;SDS011;63749;49.186;9.222;2023-12-14T13:33:04;11.63;;;6.60;;
75169;SDS011;63749;49.186;9.222;2023-12-14T13:35:31;12.52;;;6.72;;
75169;SDS011;63749;49.186;9.222;2023-12-14T13:37:56;12.50;;;6.63;;
75169;SDS011;63749;49.186;9.222;2023-12-14T13:40:24;13.10;;;7.15;;
75169;SDS011;63749;49.186;9.222;2023-12-14T13:42:50;17.35;;;8.27;;
75169;SDS011;63749;49.186;9.222;2023-12-14T13:45:16;15.67;;;7.60;;
75169;SDS011;63749;49.186;9.222;2023-12-14T13:47:42;18.60;;;8.77;;
75169;SDS011;63749;49.186;9.222;2023-12-14T13:50:07;18.05;;;8.55;;
75169;SDS011;63749;49.186;9.222;2023-12-14T13:52:33;15.60;;;7.20;;
75169;SDS011;63749;49.186;9.222;2023-12-14T13:55:00;12.35;;;6.72;;
75169;SDS011;63749;49.186;9.222;2023-12-14T13:57:25;12.97;;;6.40;;
75169;SDS011;63749;49.186;9.222;2023-12-14T13:59:52;14.77;;;7.20;;
75169;SDS011;63749;49.186;9.222;2023-12-14T14:02:17;17.60;;;7.53;;
75169;SDS011;63749;49.186;9.222;2023-12-14T14:04:43;15.55;;;7.70;;
75169;SDS011;63749;49.186;9.222;2023-12-14T14:07:08;13.57;;;7.33;;
75169;SDS011;63749;49.186;9.222;2023-12-14T14:09:34;13.43;;;6.80;;
75169;SDS011;63749;49.186;9.222;2023-12-14T14:11:59;12.65;;;6.60;;
75169;SDS011;63749;49.186;9.222;2023-12-14T14:14:26;12.23;;;6.70;;
75169;SDS011;63749;49.186;9.222;2023-12-14T14:16:51;14.40;;;6.82;;
75169;SDS011;63749;49.186;9.222;2023-12-14T14:19:17;12.23;;;6.60;;
75169;SDS011;63749;49.186;9.222;2023-12-14T14:21:42;11.90;;;6.70;;
75169;SDS011;63749;49.186;9.222;2023-12-14T14:24:08;13.00;;;7.40;;
75169;SDS011;63749;49.186;9.222;2023-12-14T14:26:33;14.03;;;7.00;;